Time;durP1;ratioP1;P1;durP2;ratioP2;P2;SDS_P1;SDS_P2;PMS_P1;PMS_P2;Temp;Humidity;BMP_temperature;BMP_pressure;BME280_temperature;BME280_humidity;BME280_pressure;Samples;Min_cycle;Max_cycle;Signal;HPM_P1;HPM_P2
2022/03/05 00:00:09;;;;;;;2.00;1.77;;;14.40;35.80;;;;;;5072220;28;20056;-76
2022/03/05 00:02:34;;;;;;;2.75;2.20;;;14.40;35.80;;;;;;5073809;28;20036;-76
2022/03/05 00:05:00;;;;;;;2.53;1.98;;;14.40;35.80;;;;;;5073643;28;20556;-76
2022/03/05 00:07:26;;;;;;;2.92;2.63;;;14.30;35.70;;;;;;5072379;28;20044;-76
2022/03/05 00:09:52;;;;;;;2.15;1.95;;;14.40;35.80;;;;;;5071685;28;20056;-77
2022/03/05 00:12:17;;;;;;;2.45;2.15;;;14.30;35.80;;;;;;5072500;28;20462;-80
2022/03/05 00:14:46;;;;;;;2.90;2.42;;;14.30;35.80;;;;;;5072260;28;20044;-78
2022/03/05 00:17:11;;;;;;;3.20;2.50;;;14.20;35.70;;;;;;5073458;28;20094;-76
2022/03/05 00:19:37;;;;;;;2.28;1.73;;;14.20;35.70;;;;;;5073357;28;20040;-76
2022/03/05 00:22:03;;;;;;;2.80;2.50;;;14.20;35.80;;;;;;5073362;28;20039;-75
2022/03/05 00:24:32;;;;;;;2.75;2.53;;;14.20;35.80;;;;;;5071963;28;20032;-77
2022/03/05 00:26:57;;;;;;;2.40;2.20;;;14.20;35.70;;;;;;5072330;28;20052;-76
2022/03/05 00:29:25;;;;;;;3.30;3.00;;;14.20;35.60;;;;;;5073232;28;20115;-78
2022/03/05 00:31:52;;;;;;;2.97;2.53;;;14.10;35.60;;;;;;5073189;28;20044;-77
2022/03/05 00:34:18;;;;;;;3.78;3.03;;;14.10;35.70;;;;;;5072047;28;20044;-75
2022/03/05 00:36:44;;;;;;;3.78;2.40;;;14.00;35.70;;;;;;5071759;28;20033;-77
2022/03/05 00:39:09;;;;;;;3.45;2.83;;;14.00;35.70;;;;;;5072965;28;20048;-77
2022/03/05 00:41:35;;;;;;;3.20;2.90;;;14.00;35.70;;;;;;5071906;28;20072;-77
2022/03/05 00:44:00;;;;;;;3.58;3.00;;;14.00;35.80;;;;;;5070862;28;20068;-77
2022/03/05 00:46:26;;;;;;;2.42;2.22;;;13.90;35.80;;;;;;5071541;28;20049;-76
2022/03/05 00:48:53;;;;;;;3.67;2.92;;;13.90;35.80;;;;;;5071602;28;20077;-77
2022/03/05 00:51:22;;;;;;;3.72;2.95;;;13.90;35.80;;;;;;5072766;28;20048;-77
2022/03/05 00:53:48;;;;;;;3.15;2.85;;;13.80;35.90;;;;;;5071417;28;20047;-77
2022/03/05 00:56:13;;;;;;;3.17;2.88;;;13.80;35.80;;;;;;5072739;28;20032;-76
2022/03/05 00:58:42;;;;;;;4.43;2.90;;;13.80;35.80;;;;;;5072668;28;20369;-76
2022/03/05 01:01:08;;;;;;;3.30;3.00;;;13.80;35.80;;;;;;5071902;28;20080;-76
2022/03/05 01:03:34;;;;;;;2.90;2.13;;;13.80;35.80;;;;;;5071143;28;20040;-76
2022/03/05 01:05:59;;;;;;;2.78;2.53;;;13.80;35.80;;;;;;5071421;28;20048;-78
2022/03/05 01:08:25;;;;;;;3.10;2.83;;;13.80;35.80;;;;;;5071239;28;20456;-77
2022/03/05 01:10:51;;;;;;;3.83;2.80;;;13.80;35.70;;;;;;5071318;28;20039;-76
2022/03/05 01:13:17;;;;;;;3.05;2.80;;;13.80;35.80;;;;;;5072463;28;20447;-77
2022/03/05 01:15:42;;;;;;;3.03;2.72;;;13.80;35.80;;;;;;5072415;28;20078;-76
2022/03/05 01:18:08;;;;;;;3.25;2.88;;;13.80;35.80;;;;;;5072336;28;20481;-77
2022/03/05 01:20:37;;;;;;;3.00;2.70;;;13.80;35.70;;;;;;5071302;28;20388;-77
2022/03/05 01:23:03;;;;;;;3.08;2.50;;;13.70;35.70;;;;;;5072213;28;20032;-76
2022/03/05 01:25:28;;;;;;;3.38;2.75;;;13.70;35.60;;;;;;5070998;28;20120;-77
2022/03/05 01:27:54;;;;;;;2.70;2.42;;;13.80;35.70;;;;;;5071119;28;20036;-77
2022/03/05 01:30:22;;;;;;;2.63;2.42;;;13.70;35.70;;;;;;5070919;28;20476;-77
2022/03/05 01:32:51;;;;;;;3.42;2.10;;;13.70;35.70;;;;;;5071000;28;20040;-78
2022/03/05 01:35:16;;;;;;;3.72;2.90;;;13.70;35.70;;;;;;5070769;28;20041;-78
2022/03/05 01:37:42;;;;;;;3.38;2.60;;;13.70;35.60;;;;;;5071298;28;20048;-77
2022/03/05 01:40:08;;;;;;;3.95;3.00;;;13.70;35.60;;;;;;5070527;28;20603;-77
2022/03/05 01:42:34;;;;;;;3.90;3.08;;;13.70;35.60;;;;;;5072216;28;20514;-77
2022/03/05 01:44:59;;;;;;;3.05;2.75;;;13.70;35.60;;;;;;5072103;28;20127;-78
2022/03/05 01:47:25;;;;;;;3.28;3.08;;;13.70;35.60;;;;;;5070622;28;20056;-77
2022/03/05 01:49:51;;;;;;;3.13;2.75;;;13.70;35.60;;;;;;5070708;28;20044;-77
2022/03/05 01:52:17;;;;;;;2.85;2.65;;;13.60;35.50;;;;;;5070540;28;20056;-77
2022/03/05 01:54:43;;;;;;;3.47;3.17;;;13.60;35.60;;;;;;5069870;28;20046;-78
2022/03/05 01:57:11;;;;;;;3.38;2.75;;;13.60;35.50;;;;;;5070317;28;20045;-77
2022/03/05 01:59:37;;;;;;;3.22;2.92;;;13.60;35.50;;;;;;5071536;28;20492;-77
2022/03/05 02:02:03;;;;;;;3.20;2.67;;;13.60;35.50;;;;;;5071731;28;20040;-77
2022/03/05 02:04:29;;;;;;;3.08;2.67;;;13.60;35.50;;;;;;5070747;28;20495;-78
2022/03/05 02:06:54;;;;;;;3.63;3.30;;;13.60;35.40;;;;;;5070524;28;20072;-78
2022/03/05 02:09:21;;;;;;;3.13;2.83;;;13.60;35.40;;;;;;5071538;28;20067;-77
2022/03/05 02:11:47;;;;;;;3.40;3.10;;;13.50;35.30;;;;;;5070736;28;20127;-77
2022/03/05 02:14:17;;;;;;;3.95;3.55;;;13.60;35.40;;;;;;5071726;28;20037;-76
2022/03/05 02:16:43;;;;;;;3.55;3.22;;;13.60;35.40;;;;;;5071091;28;20047;-76
2022/03/05 02:19:09;;;;;;;2.95;2.70;;;13.50;35.40;;;;;;5070246;28;20049;-77
2022/03/05 02:21:36;;;;;;;4.30;3.22;;;13.50;35.30;;;;;;5071613;28;20036;-77
2022/03/05 02:24:02;;;;;;;3.45;2.85;;;13.50;35.40;;;;;;5070237;28;20527;-77
2022/03/05 02:26:28;;;;;;;2.75;2.55;;;13.50;35.30;;;;;;5070281;28;20032;-77
2022/03/05 02:28:55;;;;;;;3.22;2.92;;;13.50;35.30;;;;;;5070233;28;20036;-78
2022/03/05 02:31:21;;;;;;;3.05;2.72;;;13.50;35.30;;;;;;5070509;28;20048;-78
2022/03/05 02:33:47;;;;;;;2.78;2.53;;;13.50;35.30;;;;;;5070191;28;20492;-77
2022/03/05 02:36:13;;;;;;;3.42;2.92;;;13.40;35.30;;;;;;5071530;28;20391;-77
2022/03/05 02:38:39;;;;;;;2.72;2.38;;;13.40;35.30;;;;;;5070231;28;20045;-77
2022/03/05 02:41:05;;;;;;;2.75;2.45;;;13.40;35.30;;;;;;5070459;28;20107;-76
2022/03/05 02:43:30;;;;;;;2.80;2.35;;;13.40;35.30;;;;;;5070062;28;20033;-76
2022/03/05 02:45:56;;;;;;;3.65;2.78;;;13.40;35.30;;;;;;5070321;28;20102;-75
2022/03/05 02:48:25;;;;;;;3.40;3.10;;;13.40;35.30;;;;;;5071582;28;20539;-76
2022/03/05 02:50:51;;;;;;;3.15;2.85;;;13.40;35.30;;;;;;5070661;28;20037;-75
2022/03/05 02:53:17;;;;;;;3.20;2.90;;;13.40;35.30;;;;;;5070117;28;20036;-77
2022/03/05 02:55:43;;;;;;;3.13;2.50;;;13.40;35.30;;;;;;5070220;28;20040;-78
2022/03/05 02:58:09;;;;;;;3.60;2.95;;;13.40;35.30;;;;;;5071242;28;20567;-77
2022/03/05 03:00:36;;;;;;;2.90;2.70;;;13.40;35.30;;;;;;5069905;28;20128;-77
2022/03/05 03:03:04;;;;;;;3.90;3.50;;;13.40;35.20;;;;;;5071305;28;20416;-78
2022/03/05 03:05:30;;;;;;;2.90;2.60;;;13.40;35.20;;;;;;5071174;28;20032;-78
2022/03/05 03:07:56;;;;;;;3.10;2.67;;;13.40;35.20;;;;;;5073240;28;20040;-77
2022/03/05 03:10:21;;;;;;;3.80;2.75;;;13.30;35.10;;;;;;5073505;28;20049;-77
2022/03/05 03:12:47;;;;;;;3.15;2.75;;;13.30;35.10;;;;;;5074707;28;20097;-75
2022/03/05 03:15:14;;;;;;;3.05;2.65;;;13.30;35.10;;;;;;5074713;28;20419;-74
2022/03/05 03:17:42;;;;;;;3.65;2.80;;;13.30;35.10;;;;;;5072782;28;20052;-74
2022/03/05 03:20:10;;;;;;;3.80;2.90;;;13.30;35.10;;;;;;5073135;28;20041;-74
2022/03/05 03:22:35;;;;;;;4.03;2.80;;;13.20;35.10;;;;;;5073234;28;20511;-73
2022/03/05 03:25:01;;;;;;;3.38;2.95;;;13.20;35.10;;;;;;5073452;28;20059;-74
2022/03/05 03:27:27;;;;;;;2.95;2.65;;;13.20;35.20;;;;;;5073625;28;20044;-74
2022/03/05 03:29:52;;;;;;;3.85;2.65;;;13.20;35.10;;;;;;5073014;28;20036;-75
2022/03/05 03:32:19;;;;;;;2.65;2.45;;;13.20;35.20;;;;;;5074488;28;20083;-75
2022/03/05 03:34:44;;;;;;;2.75;2.55;;;13.20;35.20;;;;;;5073285;28;20051;-75
2022/03/05 03:37:10;;;;;;;2.83;2.53;;;13.20;35.20;;;;;;5074196;28;20463;-75
2022/03/05 03:39:35;;;;;;;4.07;3.15;;;13.10;35.20;;;;;;5072835;28;20098;-74
2022/03/05 03:42:01;;;;;;;3.08;2.42;;;13.20;35.30;;;;;;5074210;28;20101;-75
2022/03/05 03:44:27;;;;;;;3.30;3.00;;;13.10;35.20;;;;;;5072929;28;20048;-73
2022/03/05 03:46:53;;;;;;;2.90;2.47;;;13.10;35.30;;;;;;5073827;28;20111;-75
2022/03/05 03:49:19;;;;;;;4.07;2.65;;;13.10;35.30;;;;;;5052480;28;20051;-74
2022/03/05 03:51:44;;;;;;;3.95;2.72;;;13.10;35.30;;;;;;5086526;28;20136;-74
2022/03/05 03:54:10;;;;;;;3.88;3.30;;;13.00;35.30;;;;;;5086201;28;20049;-74
2022/03/05 03:56:36;;;;;;;3.55;2.72;;;13.00;35.40;;;;;;5054092;28;20032;-74
2022/03/05 03:59:01;;;;;;;2.85;2.40;;;13.10;35.40;;;;;;5053505;28;20055;-74
2022/03/05 04:01:27;;;;;;;3.15;2.42;;;13.10;35.40;;;;;;5086054;28;20045;-74
2022/03/05 04:03:53;;;;;;;3.53;2.60;;;13.00;35.40;;;;;;5086094;28;20041;-75
2022/03/05 04:06:18;;;;;;;3.05;2.35;;;13.10;35.40;;;;;;5086188;28;20132;-74
2022/03/05 04:08:44;;;;;;;3.15;2.63;;;13.10;35.30;;;;;;5085853;28;20049;-74
2022/03/05 04:11:13;;;;;;;3.08;2.58;;;13.10;35.40;;;;;;5053603;28;20033;-74
2022/03/05 04:13:38;;;;;;;3.45;2.30;;;13.00;35.30;;;;;;5086094;28;20098;-75
2022/03/05 04:16:04;;;;;;;3.47;2.40;;;13.00;35.40;;;;;;5052600;28;20477;-74
2022/03/05 04:18:30;;;;;;;2.92;2.08;;;13.00;35.50;;;;;;5085562;28;20401;-74
2022/03/05 04:20:56;;;;;;;2.58;2.35;;;13.00;35.50;;;;;;5085996;28;20084;-75
2022/03/05 04:23:22;;;;;;;3.55;2.10;;;13.00;35.40;;;;;;5052297;28;20385;-75
2022/03/05 04:25:48;;;;;;;2.75;2.40;;;13.00;35.50;;;;;;5085832;28;20071;-75
2022/03/05 04:28:14;;;;;;;2.75;2.53;;;13.00;35.40;;;;;;5070827;28;20086;-74
2022/03/05 04:30:40;;;;;;;3.38;2.40;;;13.00;35.40;;;;;;5072031;28;20074;-75
2022/03/05 04:33:05;;;;;;;2.88;2.22;;;13.00;35.50;;;;;;5072162;28;20123;-74
2022/03/05 04:35:31;;;;;;;3.60;2.97;;;13.00;35.40;;;;;;5071905;28;20116;-74
2022/03/05 04:37:57;;;;;;;3.70;3.08;;;13.00;35.40;;;;;;5071993;28;20048;-73
2022/03/05 04:40:25;;;;;;;3.22;2.80;;;13.00;35.30;;;;;;5071719;28;20040;-75
2022/03/05 04:42:51;;;;;;;3.33;3.00;;;13.00;35.30;;;;;;5071808;28;20048;-72
2022/03/05 04:45:16;;;;;;;5.18;2.78;;;13.00;35.30;;;;;;5070988;28;20041;-74
2022/03/05 04:47:42;;;;;;;3.45;2.45;;;13.00;35.30;;;;;;5071071;28;20037;-74
2022/03/05 04:50:09;;;;;;;3.05;2.60;;;12.90;35.30;;;;;;5071820;28;20132;-75
2022/03/05 04:52:38;;;;;;;3.17;2.88;;;12.90;35.40;;;;;;5072616;28;20080;-74
2022/03/05 04:55:06;;;;;;;2.92;2.63;;;12.80;35.40;;;;;;5071482;28;20500;-73
2022/03/05 04:57:32;;;;;;;2.88;2.25;;;12.90;35.50;;;;;;5072993;28;20041;-75
2022/03/05 04:59:59;;;;;;;3.13;2.60;;;12.90;35.40;;;;;;5070471;28;20056;-74
2022/03/05 05:02:25;;;;;;;2.92;2.35;;;12.80;35.40;;;;;;5071449;28;20044;-74
2022/03/05 05:04:50;;;;;;;4.22;2.90;;;12.90;35.40;;;;;;5072554;28;20041;-75
2022/03/05 05:07:16;;;;;;;3.03;2.30;;;12.80;35.40;;;;;;5071483;28;20056;-74
2022/03/05 05:09:42;;;;;;;3.17;2.75;;;12.80;35.50;;;;;;5071443;28;20039;-75
2022/03/05 05:12:10;;;;;;;3.25;2.42;;;12.80;35.40;;;;;;5072442;28;20101;-75
2022/03/05 05:14:36;;;;;;;3.45;3.08;;;12.70;35.50;;;;;;5072344;28;20037;-74
2022/03/05 05:17:02;;;;;;;3.35;2.47;;;12.70;35.50;;;;;;5071362;28;20048;-74
2022/03/05 05:19:28;;;;;;;3.38;3.00;;;12.70;35.50;;;;;;5072197;28;20094;-74
2022/03/05 05:21:59;;;;;;;3.38;2.83;;;12.70;35.50;;;;;;5071247;28;20040;-74
2022/03/05 05:24:30;;;;;;;3.15;2.70;;;12.70;36.20;;;;;;5071505;28;20036;-75
2022/03/05 05:26:57;;;;;;;3.22;2.92;;;12.70;35.50;;;;;;5070150;28;20429;-75
2022/03/05 05:29:26;;;;;;;4.88;3.03;;;12.70;35.50;;;;;;5069723;28;20048;-74
2022/03/05 05:31:55;;;;;;;3.42;3.13;;;12.70;35.50;;;;;;5070891;28;20358;-74
2022/03/05 05:34:24;;;;;;;3.38;2.90;;;12.70;35.50;;;;;;5070986;28;20087;-73
2022/03/05 05:36:50;;;;;;;3.20;2.90;;;12.70;35.50;;;;;;5071042;28;20111;-74
2022/03/05 05:39:16;;;;;;;3.25;2.70;;;12.60;35.40;;;;;;5071846;28;20044;-73
2022/03/05 05:41:42;;;;;;;4.25;3.17;;;12.70;35.50;;;;;;5070960;28;20449;-73
2022/03/05 05:44:10;;;;;;;3.15;2.50;;;12.70;35.40;;;;;;5072027;28;20519;-73
2022/03/05 05:46:37;;;;;;;3.90;3.03;;;12.60;35.40;;;;;;5069374;28;20036;-73
2022/03/05 05:49:04;;;;;;;3.83;3.10;;;12.60;35.40;;;;;;5070455;28;20120;-73
2022/03/05 05:51:29;;;;;;;4.03;2.92;;;12.60;35.40;;;;;;5070484;28;20093;-74
2022/03/05 05:53:56;;;;;;;3.75;3.08;;;12.60;35.50;;;;;;5070799;28;20124;-72
2022/03/05 05:56:23;;;;;;;3.85;3.10;;;12.50;35.50;;;;;;5070844;28;20064;-73
2022/03/05 05:58:49;;;;;;;3.22;2.42;;;12.50;35.50;;;;;;5071405;28;20059;-72
2022/03/05 06:01:16;;;;;;;3.45;2.70;;;12.60;35.50;;;;;;5070489;28;20055;-73
2022/03/05 06:03:42;;;;;;;3.90;3.05;;;12.50;35.50;;;;;;5070856;28;20041;-73
2022/03/05 06:06:07;;;;;;;3.63;2.80;;;12.50;35.50;;;;;;5070530;28;20045;-73
2022/03/05 06:08:33;;;;;;;3.80;3.13;;;12.50;35.50;;;;;;5070375;28;20071;-72
2022/03/05 06:10:59;;;;;;;4.05;2.92;;;12.50;35.60;;;;;;5070333;28;20098;-74
2022/03/05 06:13:25;;;;;;;3.47;2.95;;;12.50;35.60;;;;;;5070488;28;20040;-73
2022/03/05 06:15:51;;;;;;;3.42;2.53;;;12.50;35.60;;;;;;5070412;28;20124;-73
2022/03/05 06:18:17;;;;;;;3.95;2.83;;;12.50;35.60;;;;;;5070833;28;20049;-72
2022/03/05 06:20:43;;;;;;;3.17;2.88;;;12.50;35.60;;;;;;5071576;28;20086;-73
2022/03/05 06:23:09;;;;;;;3.40;3.10;;;12.40;35.50;;;;;;5070254;28;20041;-74
2022/03/05 06:25:34;;;;;;;3.40;2.40;;;12.50;35.50;;;;;;5070290;28;20047;-73
2022/03/05 06:28:03;;;;;;;4.75;3.25;;;12.50;35.60;;;;;;5071490;28;20086;-73
2022/03/05 06:30:29;;;;;;;3.72;2.78;;;12.40;35.60;;;;;;5070561;28;20115;-74
2022/03/05 06:32:55;;;;;;;3.20;2.90;;;12.40;35.50;;;;;;5070235;28;20436;-73
2022/03/05 06:35:20;;;;;;;3.92;2.92;;;12.50;35.60;;;;;;5070468;28;20044;-75
2022/03/05 06:37:46;;;;;;;3.75;2.95;;;12.50;35.60;;;;;;5070376;28;20404;-75
2022/03/05 06:40:12;;;;;;;2.38;2.17;;;12.40;35.50;;;;;;5070121;28;20545;-75
2022/03/05 06:42:41;;;;;;;3.30;3.00;;;12.50;35.60;;;;;;5073502;28;20128;-76
2022/03/05 06:45:08;;;;;;;3.85;3.03;;;12.50;35.50;;;;;;5074030;28;20044;-76
2022/03/05 06:47:35;;;;;;;3.47;2.70;;;12.50;35.50;;;;;;5075346;28;20395;-76
2022/03/05 06:50:01;;;;;;;3.13;2.63;;;12.50;35.50;;;;;;5073897;28;20476;-77
2022/03/05 06:52:26;;;;;;;3.75;3.30;;;12.50;35.50;;;;;;5075098;28;20044;-74
2022/03/05 06:54:52;;;;;;;3.75;2.85;;;12.50;35.50;;;;;;5073663;28;20482;-74
2022/03/05 06:57:21;;;;;;;3.25;2.90;;;12.40;35.40;;;;;;5073700;28;20128;-73
2022/03/05 06:59:50;;;;;;;3.53;2.88;;;12.40;35.50;;;;;;5073440;28;20072;-73
2022/03/05 07:02:15;;;;;;;3.58;2.80;;;12.40;35.40;;;;;;5073765;28;20508;-73
2022/03/05 07:04:41;;;;;;;3.88;3.17;;;12.40;35.40;;;;;;5074816;28;20044;-74
2022/03/05 07:07:09;;;;;;;3.60;2.90;;;12.40;35.40;;;;;;5074884;28;20040;-74
2022/03/05 07:09:35;;;;;;;3.70;2.75;;;12.40;35.40;;;;;;5073729;28;20174;-74
2022/03/05 07:12:01;;;;;;;4.45;2.97;;;12.40;35.40;;;;;;5073483;28;20446;-74
2022/03/05 07:14:27;;;;;;;4.18;3.40;;;12.40;35.30;;;;;;5057109;28;20063;-74
2022/03/05 07:16:54;;;;;;;3.50;2.78;;;12.50;35.40;;;;;;5074751;28;20033;-72
2022/03/05 07:19:20;;;;;;;2.92;2.58;;;12.40;35.40;;;;;;5073377;28;20033;-73
2022/03/05 07:21:46;;;;;;;3.40;2.95;;;12.40;35.40;;;;;;5074724;28;20063;-74
2022/03/05 07:24:12;;;;;;;3.47;2.95;;;12.40;35.40;;;;;;5073167;28;20041;-73
2022/03/05 07:26:40;;;;;;;4.18;3.35;;;12.40;35.40;;;;;;5073219;28;20041;-73
2022/03/05 07:29:06;;;;;;;3.10;2.63;;;12.40;35.50;;;;;;5073374;28;20106;-74
2022/03/05 07:31:32;;;;;;;4.15;3.42;;;12.40;35.40;;;;;;5073323;28;20123;-74
2022/03/05 07:33:58;;;;;;;3.30;2.55;;;12.50;35.50;;;;;;5073158;28;20140;-74
2022/03/05 07:36:24;;;;;;;5.07;3.15;;;12.40;35.50;;;;;;5073064;28;20044;-74
2022/03/05 07:38:51;;;;;;;3.97;2.55;;;12.40;35.50;;;;;;5074098;28;20037;-73
2022/03/05 07:41:17;;;;;;;3.67;2.92;;;12.40;35.50;;;;;;5072976;28;20227;-73
2022/03/05 07:43:44;;;;;;;4.25;3.30;;;12.40;35.60;;;;;;5073073;28;20040;-73
2022/03/05 07:46:09;;;;;;;3.95;3.15;;;12.40;35.60;;;;;;5074216;28;20032;-73
2022/03/05 07:48:35;;;;;;;3.35;2.83;;;12.40;35.60;;;;;;5072818;28;20518;-74
2022/03/05 07:51:02;;;;;;;4.13;3.00;;;12.40;35.60;;;;;;5072405;28;20036;-74
2022/03/05 07:53:28;;;;;;;3.75;2.72;;;12.40;35.70;;;;;;5072313;28;20453;-74
2022/03/05 07:55:55;;;;;;;4.00;2.60;;;12.40;35.70;;;;;;5072943;28;20406;-74
2022/03/05 07:58:23;;;;;;;3.03;2.40;;;12.40;35.80;;;;;;5074098;28;20369;-73
2022/03/05 08:00:49;;;;;;;3.60;3.15;;;12.40;35.80;;;;;;5072373;28;20614;-73
2022/03/05 08:03:15;;;;;;;4.05;3.00;;;12.40;35.80;;;;;;5071784;28;20053;-68
2022/03/05 08:05:43;;;;;;;2.90;2.45;;;12.40;35.90;;;;;;5069536;28;20041;-69
2022/03/05 08:08:08;;;;;;;4.07;2.92;;;12.40;36.50;;;;;;5069965;28;20434;-75
2022/03/05 08:10:34;;;;;;;3.10;2.17;;;12.50;36.90;;;;;;5070207;28;20044;-71
2022/03/05 08:13:00;;;;;;;3.10;2.70;;;12.50;37.30;;;;;;5070983;28;20047;-70
2022/03/05 08:15:25;;;;;;;3.45;2.33;;;12.50;37.60;;;;;;5070958;28;20063;-71
2022/03/05 08:17:53;;;;;;;3.05;2.45;;;12.50;37.70;;;;;;5070304;28;20082;-72
2022/03/05 08:20:20;;;;;;;4.70;2.47;;;12.50;37.90;;;;;;5070742;28;20044;-69
2022/03/05 08:22:46;;;;;;;3.30;2.92;;;12.50;38.00;;;;;;5072043;28;20094;-76
2022/03/05 08:25:12;;;;;;;4.32;2.65;;;12.60;38.00;;;;;;5070839;28;20040;-75
2022/03/05 08:27:38;;;;;;;2.92;2.55;;;12.90;38.00;;;;;;5070636;28;20059;-75
2022/03/05 08:30:05;;;;;;;3.05;2.50;;;13.40;37.60;;;;;;5070394;28;20048;-69
2022/03/05 08:32:31;;;;;;;4.28;2.33;;;14.00;36.90;;;;;;5071146;28;20036;-74
2022/03/05 08:34:56;;;;;;;2.92;2.50;;;14.60;36.00;;;;;;5071364;28;20032;-74
2022/03/05 08:37:22;;;;;;;4.72;2.60;;;15.10;34.90;;;;;;5070289;28;20082;-68
2022/03/05 08:39:47;;;;;;;4.22;2.30;;;15.70;34.20;;;;;;5069432;28;20101;-69
2022/03/05 08:42:13;;;;;;;1.83;1.52;;;16.10;33.50;;;;;;5071759;28;20085;-74
2022/03/05 08:44:39;;;;;;;2.92;2.35;;;16.50;32.70;;;;;;5071899;28;20391;-71
2022/03/05 08:47:05;;;;;;;2.65;2.15;;;16.90;32.00;;;;;;5069867;28;20036;-69
2022/03/05 08:49:31;;;;;;;3.55;2.90;;;17.20;31.50;;;;;;5070588;28;20059;-73
2022/03/05 08:52:07;;;;;;;3.50;2.65;;;17.50;31.00;;;;;;5070493;28;20502;-71
2022/03/05 08:54:35;;;;;;;2.72;2.00;;;17.80;30.50;;;;;;5069972;28;20477;-70
2022/03/05 08:57:02;;;;;;;2.80;2.28;;;18.00;30.10;;;;;;5069577;28;20044;-73
2022/03/05 08:59:28;;;;;;;2.88;2.30;;;18.30;29.90;;;;;;5070473;28;20044;-70
2022/03/05 09:01:54;;;;;;;3.05;2.55;;;18.50;29.50;;;;;;5070448;28;20044;-70
2022/03/05 09:04:20;;;;;;;3.45;2.67;;;18.70;29.20;;;;;;5069562;28;20044;-73
2022/03/05 09:06:46;;;;;;;3.55;3.25;;;18.90;28.90;;;;;;5070551;28;20482;-71
2022/03/05 09:09:14;;;;;;;3.00;2.70;;;19.00;28.80;;;;;;5071706;28;20123;-71
2022/03/05 09:11:40;;;;;;;2.55;2.08;;;19.20;28.60;;;;;;5067381;28;20040;-73
2022/03/05 09:14:06;;;;;;;2.35;1.98;;;19.30;28.60;;;;;;5066371;28;20052;-76
2022/03/05 09:16:37;;;;;;;2.33;2.13;;;19.40;28.50;;;;;;5102398;27;20032;-76
2022/03/05 09:19:03;;;;;;;2.78;2.03;;;19.60;28.30;;;;;;5074013;28;20033;-76
2022/03/05 09:21:28;;;;;;;2.88;2.45;;;19.70;28.20;;;;;;5105133;27;20045;-75
2022/03/05 09:23:54;;;;;;;3.88;2.33;;;19.80;28.00;;;;;;5072567;28;20056;-76
2022/03/05 09:26:20;;;;;;;3.10;2.63;;;19.90;27.90;;;;;;5089544;28;20087;-75
2022/03/05 09:28:45;;;;;;;3.60;2.97;;;20.00;27.90;;;;;;5073527;28;20044;-74
2022/03/05 09:31:11;;;;;;;3.55;2.88;;;20.00;27.80;;;;;;5103248;27;20107;-75
2022/03/05 09:33:37;;;;;;;3.97;2.40;;;20.10;27.80;;;;;;5062594;28;20039;-76
2022/03/05 09:36:03;;;;;;;3.47;2.88;;;20.20;27.70;;;;;;5073410;28;20044;-76
2022/03/05 09:38:29;;;;;;;3.22;2.65;;;20.20;27.70;;;;;;5106190;27;20040;-76
2022/03/05 09:40:55;;;;;;;3.22;2.67;;;20.30;27.70;;;;;;5107862;27;20063;-74
2022/03/05 09:43:22;;;;;;;4.00;3.05;;;20.30;27.70;;;;;;5095447;27;20052;-76
2022/03/05 09:45:48;;;;;;;4.38;3.00;;;20.40;27.70;;;;;;5073696;28;20040;-76
2022/03/05 09:48:16;;;;;;;4.25;2.80;;;20.40;27.70;;;;;;5073796;28;20037;-76
2022/03/05 09:50:43;;;;;;;3.65;2.35;;;20.50;27.70;;;;;;5101328;27;20539;-76
2022/03/05 09:53:09;;;;;;;3.95;2.83;;;20.60;27.70;;;;;;5108394;27;20051;-74
2022/03/05 09:55:38;;;;;;;3.20;2.63;;;20.70;27.70;;;;;;5073172;28;20095;-76
2022/03/05 09:58:04;;;;;;;3.35;3.05;;;20.70;27.80;;;;;;5067761;28;20068;-76
2022/03/05 10:00:30;;;;;;;3.53;2.95;;;20.80;27.80;;;;;;5070207;28;20813;-76
2022/03/05 10:02:57;;;;;;;3.85;2.55;;;20.90;27.70;;;;;;5099018;28;20068;-76
2022/03/05 10:05:27;;;;;;;2.95;2.42;;;20.90;27.70;;;;;;5072089;28;20063;-75
2022/03/05 10:11:01;;;;;;;2.67;2.28;;;21.00;27.90;;;;;;5093725;27;20466;-76
2022/03/05 10:13:30;;;;;;;3.55;2.70;;;20.90;28.00;;;;;;5104840;28;20119;-77
2022/03/05 10:16:06;;;;;;;3.13;2.50;;;20.90;28.00;;;;;;5096686;28;20068;-72
2022/03/05 10:21:11;;;;;;;5.07;3.33;;;21.00;28.10;;;;;;5087042;27;20384;-72
2022/03/05 10:23:47;;;;;;;4.85;2.95;;;21.00;28.00;;;;;;5065136;28;20098;-72
2022/03/05 10:26:15;;;;;;;3.80;3.00;;;21.10;28.00;;;;;;5066880;28;20041;-73
2022/03/05 10:28:41;;;;;;;3.10;2.80;;;21.20;28.00;;;;;;5055167;28;20070;-71
2022/03/05 10:31:10;;;;;;;3.25;2.95;;;21.10;28.00;;;;;;5067459;28;20083;-73
2022/03/05 10:33:45;;;;;;;3.15;2.58;;;21.20;28.00;;;;;;5066968;28;20580;-74
2022/03/05 10:36:26;;;;;;;4.93;2.65;;;21.20;28.20;;;;;;5068036;28;20041;-74
2022/03/05 10:41:38;;;;;;;2.65;2.22;;;21.20;28.30;;;;;;5089263;27;20352;-73
2022/03/05 10:44:08;;;;;;;3.67;3.28;;;21.30;28.30;;;;;;5088093;28;20044;-76
2022/03/05 10:49:23;;;;;;;4.75;3.25;;;21.30;28.50;;;;;;5130240;27;20196;-73
2022/03/05 10:54:42;;;;;;;3.88;3.28;;;21.20;28.70;;;;;;5129790;27;20845;-72
2022/03/05 10:57:14;;;;;;;5.13;2.45;;;21.30;28.90;;;;;;5120764;28;20444;-72
2022/03/05 10:59:46;;;;;;;3.85;2.83;;;21.30;28.90;;;;;;5107750;28;20510;-75
2022/03/05 11:02:14;;;;;;;4.47;2.40;;;21.30;28.90;;;;;;5108592;28;20075;-73
2022/03/05 11:04:44;;;;;;;5.78;2.78;;;21.40;28.90;;;;;;5106356;28;20035;-69
2022/03/05 11:07:16;;;;;;;8.90;3.60;;;21.40;28.90;;;;;;5113509;28;20058;-69
2022/03/05 11:09:47;;;;;;;4.35;2.88;;;21.40;28.90;;;;;;5114670;28;20322;-73
2022/03/05 11:12:18;;;;;;;3.95;3.28;;;21.40;28.80;;;;;;5119546;27;20039;-75
2022/03/05 11:14:48;;;;;;;4.90;3.20;;;21.40;29.00;;;;;;5119792;27;20035;-72
2022/03/05 11:17:15;;;;;;;3.75;2.80;;;21.30;29.20;;;;;;5111673;28;20043;-73
2022/03/05 11:19:40;;;;;;;3.50;3.17;;;21.40;29.00;;;;;;5109170;28;20114;-64
2022/03/05 11:22:08;;;;;;;3.60;2.53;;;21.40;28.90;;;;;;5128139;28;20031;-69
2022/03/05 11:24:38;;;;;;;4.00;2.92;;;21.40;28.80;;;;;;5118112;27;20043;-74
2022/03/05 11:27:04;;;;;;;6.80;3.17;;;21.50;28.70;;;;;;5142088;27;20043;-75
2022/03/05 11:29:50;;;;;;;5.00;3.15;;;21.50;28.70;;;;;;5126431;27;20055;-73
2022/03/05 11:32:15;;;;;;;5.85;3.28;;;21.50;28.50;;;;;;5121129;28;20039;-75
2022/03/05 11:34:44;;;;;;;5.10;3.47;;;21.50;28.60;;;;;;5124774;28;20092;-73
2022/03/05 11:39:54;;;;;;;3.78;2.95;;;21.40;29.00;;;;;;5146801;27;1161916;-72
2022/03/05 11:42:30;;;;;;;3.15;2.58;;;21.40;29.30;;;;;;5152400;27;20047;-73
2022/03/05 11:44:57;;;;;;;2.95;2.65;;;21.40;29.50;;;;;;5153109;27;20043;-73
2022/03/05 11:50:07;;;;;;;5.03;3.38;;;21.40;29.60;;;;;;5108322;27;20409;-72
2022/03/05 11:55:24;;;;;;;4.10;3.13;;;21.40;29.70;;;;;;5128168;27;20136;-73
2022/03/05 12:00:32;;;;;;;8.32;3.13;;;21.30;29.70;;;;;;5149093;27;1154345;-73
2022/03/05 12:02:59;;;;;;;5.05;3.33;;;21.30;29.50;;;;;;5152394;27;20050;-75
2022/03/05 12:11:19;;;;;;;5.40;3.47;;;21.30;29.60;;;;;;5130263;27;20415;-72
2022/03/05 12:13:46;;;;;;;5.85;3.70;;;21.10;30.30;;;;;;5128629;28;20053;-73
2022/03/05 12:16:16;;;;;;;4.65;3.03;;;21.00;30.60;;;;;;5128477;28;20049;-69
2022/03/05 12:18:42;;;;;;;5.05;3.47;;;20.90;30.70;;;;;;5128494;28;20031;-76
2022/03/05 12:21:07;;;;;;;4.28;3.38;;;20.90;30.90;;;;;;5128645;28;20031;-76
2022/03/05 12:23:33;;;;;;;4.55;3.60;;;20.70;31.00;;;;;;5128232;28;20093;-73
2022/03/05 12:26:03;;;;;;;4.38;3.80;;;20.70;31.20;;;;;;5122881;28;20039;-75
2022/03/05 12:28:40;;;;;;;4.30;3.47;;;20.60;31.20;;;;;;5128679;28;20486;-73
2022/03/05 12:31:06;;;;;;;5.07;4.03;;;20.60;31.30;;;;;;5127851;28;20031;-72
2022/03/05 12:33:37;;;;;;;4.53;3.80;;;20.50;31.30;;;;;;5128076;28;20559;-76
2022/03/05 12:36:03;;;;;;;4.53;3.65;;;20.30;31.30;;;;;;5128399;28;20039;-75
2022/03/05 12:38:29;;;;;;;5.30;4.43;;;20.30;31.40;;;;;;5128699;28;20043;-74
2022/03/05 12:40:54;;;;;;;5.22;4.13;;;20.20;31.50;;;;;;5128738;28;20399;-76
2022/03/05 12:43:20;;;;;;;5.03;4.32;;;20.10;31.50;;;;;;5127578;28;20042;-73
2022/03/05 12:45:48;;;;;;;5.32;4.40;;;20.00;31.50;;;;;;5129638;28;20057;-74
2022/03/05 12:50:56;;;;;;;6.22;5.30;;;19.80;31.70;;;;;;5129152;27;20917;-73
2022/03/05 12:53:23;;;;;;;5.75;4.75;;;19.70;31.70;;;;;;5113082;28;20080;-73
2022/03/05 13:01:11;;;;;;;6.03;4.88;;;19.60;31.80;;;;;;5130039;27;20422;-73
2022/03/05 13:03:38;;;;;;;6.28;4.80;;;19.30;31.60;;;;;;5129145;28;20047;-73
2022/03/05 13:06:06;;;;;;;6.40;4.75;;;19.20;31.60;;;;;;5146199;27;20057;-74
2022/03/05 13:08:35;;;;;;;6.32;5.43;;;19.10;31.70;;;;;;5129188;27;20092;-73
2022/03/05 13:11:19;;;;;;;8.38;5.95;;;19.10;31.70;;;;;;5128807;28;20043;-73
2022/03/05 13:16:29;;;;;;;6.75;5.25;;;18.90;31.60;;;;;;5130329;27;20349;-73
2022/03/05 13:21:39;;;;;;;7.40;6.05;;;18.80;31.70;;;;;;5129677;27;20695;-74
2022/03/05 13:24:07;;;;;;;6.85;5.43;;;18.70;31.70;;;;;;5129297;28;20139;-73
2022/03/05 13:26:34;;;;;;;7.40;5.63;;;18.60;31.70;;;;;;5128260;28;20490;-73